createdAt,value
2023-04-13T00:03:19.114Z,9.67
2023-04-13T00:07:22.950Z,9.62
2023-04-13T00:11:24.535Z,9.60
2023-04-13T00:15:26.476Z,9.58
2023-04-13T00:19:28.512Z,9.55
2023-04-13T00:23:30.143Z,9.52
2023-04-13T00:27:31.949Z,9.49
2023-04-13T00:31:34.424Z,9.50
2023-04-13T00:35:36.631Z,9.48
2023-04-13T00:39:38.192Z,9.42
2023-04-13T00:43:40.310Z,9.40
2023-04-13T00:47:43.264Z,9.38
2023-04-13T00:51:45.386Z,9.32
2023-04-13T00:55:48.599Z,9.26
2023-04-13T00:59:52.493Z,9.26
2023-04-13T01:03:54.051Z,9.31
2023-04-13T01:08:17.460Z,9.30
2023-04-13T01:12:30.775Z,9.27
2023-04-13T01:16:42.608Z,9.20
2023-04-13T01:20:46.449Z,9.19
2023-04-13T01:24:53.461Z,9.16
2023-04-13T01:28:55.199Z,9.16
2023-04-13T01:32:58.344Z,9.24
2023-04-13T01:37:04.657Z,9.30
2023-04-13T01:41:06.851Z,9.32
2023-04-13T01:45:26.180Z,9.27
2023-04-13T01:49:29.222Z,9.26
2023-04-13T01:54:12.414Z,9.26
2023-04-13T01:58:17.433Z,9.27
2023-04-13T02:02:26.747Z,9.26
2023-04-13T02:06:29.392Z,9.26
2023-04-13T02:10:34.174Z,9.30
2023-04-13T02:14:36.140Z,9.26
2023-04-13T02:18:38.658Z,9.31
2023-04-13T02:22:41.535Z,9.32
2023-04-13T02:26:43.594Z,9.35
2023-04-13T02:30:45.444Z,9.32
2023-04-13T02:34:47.506Z,9.38
2023-04-13T02:38:49.848Z,9.38
2023-04-13T02:43:00.217Z,9.41
2023-04-13T02:47:03.033Z,9.41
2023-04-13T02:51:04.988Z,9.41
2023-04-13T02:55:10.554Z,9.44
2023-04-13T02:59:23.617Z,9.45
2023-04-13T03:03:25.486Z,9.44
2023-04-13T03:07:27.577Z,9.44
2023-04-13T03:11:29.524Z,9.44
2023-04-13T03:15:42.151Z,9.44
2023-04-13T03:19:47.437Z,9.41
2023-04-13T03:23:50.461Z,9.44
2023-04-13T03:27:53.069Z,9.40
2023-04-13T03:31:57.701Z,9.40
2023-04-13T03:36:03.320Z,9.38
2023-04-13T03:40:11.117Z,9.40
2023-04-13T03:44:21.128Z,9.40
2023-04-13T03:48:23.191Z,9.37
2023-04-13T03:52:25.634Z,9.35
2023-04-13T03:56:32.957Z,9.34
2023-04-13T04:00:35.016Z,9.31
2023-04-13T04:04:45.922Z,9.30
2023-04-13T04:08:49.845Z,9.31
2023-04-13T04:13:08.139Z,9.32
2023-04-13T04:17:16.299Z,9.32
2023-04-13T04:21:21.705Z,9.34
2023-04-13T04:25:23.707Z,9.32
2023-04-13T04:29:35.308Z,9.31
2023-04-13T04:34:10.594Z,9.32
2023-04-13T04:38:14.380Z,9.30
2023-04-13T04:42:18.723Z,9.23
2023-04-13T04:46:22.043Z,9.24
2023-04-13T04:50:29.019Z,9.22
2023-04-13T04:54:39.755Z,9.20
2023-04-13T04:58:41.792Z,9.24
2023-04-13T05:02:44.514Z,9.24
2023-04-13T05:06:48.261Z,9.26
2023-04-13T05:10:53.874Z,9.27
2023-04-13T05:14:55.586Z,9.30
2023-04-13T05:18:57.893Z,9.27
2023-04-13T05:23:22.892Z,9.26
2023-04-13T05:27:32.173Z,9.30
2023-04-13T05:31:34.425Z,9.26
2023-04-13T05:35:37.482Z,9.31
2023-04-13T05:39:40.941Z,9.38
2023-04-13T05:43:46.043Z,9.42
2023-04-13T05:47:47.717Z,9.50
2023-04-13T05:51:51.330Z,9.59
2023-04-13T05:55:54.281Z,9.74
2023-04-13T05:59:55.974Z,9.85
2023-04-13T06:04:03.050Z,9.68
2023-04-13T06:08:08.855Z,9.77
2023-04-13T06:12:13.576Z,9.83
2023-04-13T06:16:15.607Z,9.81
2023-04-13T06:20:17.930Z,9.85
2023-04-13T06:24:19.492Z,9.85
2023-04-13T06:28:22.102Z,9.86
2023-04-13T06:32:26.576Z,9.78
2023-04-13T06:36:28.380Z,9.78
2023-04-13T06:40:34.973Z,9.74
2023-04-13T06:44:40.224Z,9.73
2023-04-13T06:48:42.004Z,9.71
2023-04-13T06:52:45.780Z,9.62
2023-04-13T06:56:47.775Z,9.62
2023-04-13T07:00:49.675Z,9.62
2023-04-13T07:04:51.641Z,9.58
2023-04-13T07:08:53.987Z,9.63
2023-04-13T07:12:56.951Z,9.65
2023-04-13T07:17:02.877Z,9.80
2023-04-13T07:21:05.509Z,9.74
2023-04-13T07:25:18.024Z,9.56
2023-04-13T07:29:20.875Z,9.52
2023-04-13T07:33:29.965Z,9.44
2023-04-13T07:37:31.591Z,9.59
2023-04-13T07:41:33.363Z,9.71
2023-04-13T07:45:38.282Z,9.68
2023-04-13T07:49:40.705Z,9.65
2023-04-13T07:53:47.815Z,9.58
2023-04-13T07:57:49.693Z,9.68
2023-04-13T08:01:52.199Z,9.86
2023-04-13T08:05:54.499Z,10.22
2023-04-13T08:09:56.120Z,10.31
2023-04-13T08:13:58.132Z,10.58
2023-04-13T08:18:00.567Z,10.65
2023-04-13T08:22:03.212Z,10.86
2023-04-13T08:26:05.743Z,10.86
2023-04-13T08:30:08.236Z,10.99
2023-04-13T08:34:21.664Z,10.95
2023-04-13T08:38:23.251Z,11.09
2023-04-13T08:42:27.075Z,11.08
2023-04-13T08:46:30.677Z,11.19
2023-04-13T08:50:32.685Z,11.21
2023-04-13T08:54:35.867Z,11.01
2023-04-13T08:58:43.973Z,10.98
2023-04-13T09:03:03.706Z,10.93
2023-04-13T09:07:08.383Z,10.99
2023-04-13T09:11:15.064Z,11.26
2023-04-13T09:15:17.119Z,11.51
2023-04-13T09:19:32.432Z,11.96
2023-04-13T09:23:36.158Z,11.97
2023-04-13T09:27:40.459Z,11.93
2023-04-13T09:31:45.076Z,11.81
2023-04-13T09:35:47.386Z,11.87
2023-04-13T09:39:49.703Z,11.97
2023-04-13T09:43:51.226Z,11.85
2023-04-13T09:47:53.407Z,12.15
2023-04-13T09:51:56.160Z,12.56
2023-04-13T09:56:00.834Z,12.73
2023-04-13T10:00:02.624Z,12.67
2023-04-13T10:04:13.240Z,12.49
2023-04-13T10:08:21.719Z,12.31
2023-04-13T10:12:27.395Z,12.58
2023-04-13T10:17:05.954Z,12.71
2023-04-13T10:21:08.804Z,12.62
2023-04-13T10:25:29.612Z,12.87
2023-04-13T10:29:35.179Z,12.95
2023-04-13T10:33:52.195Z,12.80
2023-04-13T10:37:57.706Z,12.62
2023-04-13T10:42:10.128Z,12.56
2023-04-13T10:46:16.306Z,12.88
2023-04-13T10:50:24.045Z,13.01
2023-04-13T10:54:27.341Z,12.85
2023-04-13T10:58:32.768Z,12.87
2023-04-13T11:02:35.941Z,12.95
2023-04-13T11:06:38.458Z,12.96
2023-04-13T11:10:40.077Z,13.09
2023-04-13T11:14:47.454Z,13.39
2023-04-13T11:18:48.993Z,13.55
2023-04-13T11:22:50.614Z,13.57
2023-04-13T11:26:52.562Z,13.47
2023-04-13T11:30:57.070Z,13.01
2023-04-13T11:35:09.172Z,12.80
2023-04-13T11:39:12.627Z,12.46
2023-04-13T11:43:16.344Z,12.34
2023-04-13T11:47:18.044Z,12.74
2023-04-13T11:51:20.980Z,12.91
2023-04-13T11:55:24.193Z,12.91
2023-04-13T11:59:26.422Z,12.88
2023-04-13T12:03:41.937Z,12.84
2023-04-13T12:07:49.526Z,12.88
2023-04-13T12:12:08.369Z,13.01
2023-04-13T12:20:46.109Z,13.59
2023-04-13T12:24:48.292Z,13.79
2023-04-13T12:28:56.775Z,14.16
2023-04-13T12:32:58.560Z,14.01
2023-04-13T12:37:00.528Z,14.04
2023-04-13T12:41:02.462Z,14.08
2023-04-13T12:45:04.553Z,14.48
2023-04-13T12:49:06.207Z,14.59
2023-04-13T12:53:07.763Z,14.52
2023-04-13T12:57:09.675Z,14.45
2023-04-13T13:01:11.451Z,14.38
2023-04-13T13:05:13.123Z,14.35
2023-04-13T13:09:14.678Z,14.78
2023-04-13T13:13:18.341Z,14.63
2023-04-13T13:17:19.929Z,14.39
2023-04-13T13:21:21.861Z,14.21
2023-04-13T13:25:23.475Z,14.21
2023-04-13T13:29:25.355Z,14.36
2023-04-13T13:33:27.064Z,14.13
2023-04-13T13:37:28.773Z,13.73
2023-04-13T13:41:30.350Z,13.10
2023-04-13T13:45:31.863Z,12.31
2023-04-13T13:49:36.244Z,10.98
2023-04-13T13:53:56.585Z,10.43
2023-04-13T13:57:58.323Z,10.36
2023-04-13T14:02:00.362Z,10.49
2023-04-13T14:06:02.652Z,10.66
2023-04-13T14:10:04.650Z,10.84
2023-04-13T14:14:18.262Z,11.02
2023-04-13T14:18:25.938Z,11.05
2023-04-13T14:22:27.569Z,11.23
2023-04-13T14:26:29.141Z,11.70
2023-04-13T14:30:30.839Z,12.30
2023-04-13T14:34:32.442Z,13.03
2023-04-13T14:38:34.648Z,13.62
2023-04-13T14:42:36.259Z,14.06
2023-04-13T14:46:38.089Z,14.38
2023-04-13T14:50:39.738Z,14.53
2023-04-13T14:54:41.809Z,14.23
2023-04-13T14:58:43.439Z,14.12
2023-04-13T15:02:45.306Z,14.46
2023-04-13T15:06:49.284Z,14.59
2023-04-13T15:10:50.924Z,14.39
2023-04-13T15:14:52.557Z,13.84
2023-04-13T15:18:54.341Z,13.54
2023-04-13T15:23:04.791Z,13.36
2023-04-13T15:27:06.414Z,13.47
2023-04-13T15:31:08.040Z,13.44
2023-04-13T15:35:09.578Z,13.46
2023-04-13T15:39:11.157Z,13.44
2023-04-13T15:43:12.765Z,13.12
2023-04-13T15:47:14.382Z,12.99
2023-04-13T15:51:16.310Z,12.76
2023-04-13T15:55:18.046Z,12.62
2023-04-13T15:59:19.590Z,12.61
2023-04-13T16:03:21.233Z,12.52
2023-04-13T16:07:23.067Z,12.38
2023-04-13T16:11:24.945Z,12.41
2023-04-13T16:15:26.631Z,12.48
2023-04-13T16:19:28.263Z,12.52
2023-04-13T16:23:33.521Z,12.38
2023-04-13T16:27:36.048Z,12.31
2023-04-13T16:31:37.708Z,12.30
2023-04-13T16:35:39.486Z,12.25
2023-04-13T16:39:42.946Z,12.18
2023-04-13T16:43:44.934Z,12.12
2023-04-13T16:47:46.550Z,12.11
2023-04-13T16:51:48.552Z,12.00
2023-04-13T16:55:51.128Z,12.00
2023-04-13T16:59:52.702Z,12.00
2023-04-13T17:03:54.940Z,12.03
2023-04-13T17:07:56.556Z,12.08
2023-04-13T17:11:58.143Z,12.13
2023-04-13T17:16:00.552Z,12.03
2023-04-13T17:20:02.208Z,12.00
2023-04-13T17:24:04.532Z,11.88
2023-04-13T17:28:06.188Z,11.87
2023-04-13T17:32:07.715Z,11.85
2023-04-13T17:36:09.311Z,11.78
2023-04-13T17:40:11.356Z,11.67
2023-04-13T17:44:12.986Z,11.49
2023-04-13T17:48:15.035Z,11.39
2023-04-13T17:52:16.914Z,11.26
2023-04-13T17:56:18.930Z,11.13
2023-04-13T18:00:20.562Z,11.11
2023-04-13T18:04:22.437Z,11.11
2023-04-13T18:08:24.136Z,11.05
2023-04-13T18:12:25.958Z,10.95
2023-04-13T18:16:27.922Z,10.86
2023-04-13T18:20:30.105Z,10.81
2023-04-13T18:24:31.743Z,10.75
2023-04-13T18:28:36.849Z,10.63
2023-04-13T18:32:38.557Z,10.58
2023-04-13T18:36:40.469Z,10.51
2023-04-13T18:40:42.185Z,10.44
2023-04-13T18:44:43.785Z,10.38
2023-04-13T18:48:45.427Z,10.28
2023-04-13T18:52:47.021Z,10.22
2023-04-13T18:56:48.593Z,10.22
2023-04-13T19:00:50.256Z,10.22
2023-04-13T19:04:51.838Z,10.17
2023-04-13T19:08:53.680Z,10.11
2023-04-13T19:12:56.195Z,10.06
2023-04-13T19:16:59.119Z,10.02
2023-04-13T19:21:00.810Z,10.02
2023-04-13T19:25:02.730Z,10.01
2023-04-13T19:29:04.385Z,9.96
2023-04-13T19:33:05.968Z,9.92
2023-04-13T19:37:07.748Z,9.91
2023-04-13T19:41:09.378Z,9.88
2023-04-13T19:45:13.049Z,9.86
2023-04-13T19:49:14.616Z,9.85
2023-04-13T19:53:16.215Z,9.80
2023-04-13T19:57:18.279Z,9.77
2023-04-13T20:01:21.178Z,9.77
2023-04-13T20:05:22.823Z,9.74
2023-04-13T20:09:24.408Z,9.71
2023-04-13T20:13:25.920Z,9.68
2023-04-13T20:17:27.549Z,9.65
2023-04-13T20:21:31.026Z,9.59
2023-04-13T20:25:32.702Z,9.53
2023-04-13T20:29:34.287Z,9.49
2023-04-13T20:33:35.828Z,9.44
2023-04-13T20:37:37.528Z,9.40
2023-04-13T20:41:39.216Z,9.31
2023-04-13T20:45:42.936Z,9.23
2023-04-13T20:49:46.975Z,9.16
2023-04-13T20:53:48.622Z,9.08
2023-04-13T20:57:50.273Z,9.00
2023-04-13T21:01:51.969Z,8.96
2023-04-13T21:05:53.766Z,8.93
2023-04-13T21:09:55.845Z,8.89
2023-04-13T21:13:57.440Z,8.83
2023-04-13T21:17:59.159Z,8.80
2023-04-13T21:22:00.800Z,8.78
2023-04-13T21:26:03.112Z,8.73
2023-04-13T21:30:06.482Z,8.68
2023-04-13T21:34:08.029Z,8.67
2023-04-13T21:38:09.566Z,8.64
2023-04-13T21:42:11.202Z,8.64
2023-04-13T21:46:14.798Z,8.61
2023-04-13T21:50:16.556Z,8.57
2023-04-13T21:54:18.197Z,8.54
2023-04-13T21:58:19.841Z,8.43
2023-04-13T22:02:21.701Z,8.43
2023-04-13T22:06:24.099Z,8.37
2023-04-13T22:10:25.944Z,8.34
2023-04-13T22:14:27.448Z,8.31
2023-04-13T22:18:29.119Z,8.25
2023-04-13T22:22:30.978Z,8.22
2023-04-13T22:26:32.619Z,8.18
2023-04-13T22:30:35.974Z,8.12
2023-04-13T22:34:37.539Z,8.00
2023-04-13T22:38:39.072Z,7.94
2023-04-13T22:42:40.656Z,7.82
2023-04-13T22:46:42.268Z,7.73
2023-04-13T22:50:43.839Z,7.71
2023-04-13T22:54:46.661Z,7.62
2023-04-13T22:58:48.215Z,7.58
2023-04-13T23:02:56.530Z,7.57
2023-04-13T23:06:58.352Z,7.51
2023-04-13T23:11:10.332Z,7.50
2023-04-13T23:15:12.866Z,7.50
2023-04-13T23:19:16.314Z,7.48
2023-04-13T23:23:17.878Z,7.50
2023-04-13T23:27:19.456Z,7.47
2023-04-13T23:31:21.321Z,7.47
2023-04-13T23:35:23.134Z,7.44
2023-04-13T23:39:24.734Z,7.41
2023-04-13T23:43:26.611Z,7.42
2023-04-13T23:47:28.348Z,7.41
2023-04-13T23:51:31.074Z,7.37
2023-04-13T23:55:33.032Z,7.26
2023-04-13T23:59:34.634Z,7.18
